Terminal Aerodrome Forecast
Issued by NWS

Current Version | Previous Version | Graphics & Text | Print | Product List | Glossary On
Versions: 1 2 3 4 5 6 7 8 9 10 11 12 13 14 15 16 17 18 19 20 21 22 23 24
306
FTUS41 KILN 191137
TAFLUK
TAF
KLUK 191137Z 1912/2012 14003KT P6SM OVC250
     FM191600 12006KT P6SM OVC120
     FM192300 12007KT P6SM VCSH OVC050
     FM200100 11008KT 5SM -RA BR OVC018
     FM200600 12004KT 3SM -RA BR OVC006=

USA.gov is the U.S. government's official web portal to all federal, state and local government web resources and services.